sensor_id;sensor_type;location;lat;lon;timestamp;pressure;altitude;pressure_sealevel;temperature;humidity
30216;BME280;17028;47.642;8.070;2022-08-14T00:01:38;93364.22;;;20.31;39.00
30216;BME280;17028;47.642;8.070;2022-08-14T00:06:39;93353.50;;;20.24;39.23
30216;BME280;17028;47.642;8.070;2022-08-14T00:11:40;93362.56;;;20.16;39.46
30216;BME280;17028;47.642;8.070;2022-08-14T00:16:42;93354.84;;;20.17;39.52
30216;BME280;17028;47.642;8.070;2022-08-14T00:21:43;93354.31;;;20.18;39.30
30216;BME280;17028;47.642;8.070;2022-08-14T00:26:44;93350.16;;;20.19;39.39
30216;BME280;17028;47.642;8.070;2022-08-14T00:31:45;93344.81;;;20.16;39.49
30216;BME280;17028;47.642;8.070;2022-08-14T00:36:46;93347.47;;;20.08;39.44
30216;BME280;17028;47.642;8.070;2022-08-14T00:41:47;93339.84;;;19.97;39.28
30216;BME280;17028;47.642;8.070;2022-08-14T00:46:48;93335.28;;;19.89;39.37
30216;BME280;17028;47.642;8.070;2022-08-14T00:51:49;93334.31;;;19.80;39.43
30216;BME280;17028;47.642;8.070;2022-08-14T00:56:51;93336.47;;;19.68;39.63
30216;BME280;17028;47.642;8.070;2022-08-14T01:01:55;93324.28;;;19.55;39.71
30216;BME280;17028;47.642;8.070;2022-08-14T01:06:57;93314.16;;;19.34;40.02
30216;BME280;17028;47.642;8.070;2022-08-14T01:12:00;93302.47;;;19.13;40.22
30216;BME280;17028;47.642;8.070;2022-08-14T01:17:02;93308.69;;;19.06;40.30
30216;BME280;17028;47.642;8.070;2022-08-14T01:22:04;93305.41;;;18.96;40.41
30216;BME280;17028;47.642;8.070;2022-08-14T01:27:07;93301.59;;;18.88;40.61
30216;BME280;17028;47.642;8.070;2022-08-14T01:32:13;93293.66;;;18.81;40.68
30216;BME280;17028;47.642;8.070;2022-08-14T01:37:14;93286.75;;;18.76;40.68
30216;BME280;17028;47.642;8.070;2022-08-14T01:42:16;93283.69;;;18.74;41.15
30216;BME280;17028;47.642;8.070;2022-08-14T01:47:17;93276.00;;;18.69;41.17
30216;BME280;17028;47.642;8.070;2022-08-14T01:52:18;93285.00;;;18.67;41.37
30216;BME280;17028;47.642;8.070;2022-08-14T01:57:21;93275.50;;;18.65;41.24
30216;BME280;17028;47.642;8.070;2022-08-14T02:02:22;93264.50;;;18.61;41.43
30216;BME280;17028;47.642;8.070;2022-08-14T02:07:23;93255.53;;;18.57;41.67
30216;BME280;17028;47.642;8.070;2022-08-14T02:12:24;93240.63;;;18.62;41.40
30216;BME280;17028;47.642;8.070;2022-08-14T02:17:27;93224.94;;;18.67;41.54
30216;BME280;17028;47.642;8.070;2022-08-14T02:22:28;93219.53;;;18.69;41.77
30216;BME280;17028;47.642;8.070;2022-08-14T02:27:29;93208.00;;;18.67;42.26
30216;BME280;17028;47.642;8.070;2022-08-14T02:32:31;93203.13;;;18.67;42.26
30216;BME280;17028;47.642;8.070;2022-08-14T02:37:34;93189.78;;;18.68;42.23
30216;BME280;17028;47.642;8.070;2022-08-14T02:42:36;93181.31;;;18.68;42.62
30216;BME280;17028;47.642;8.070;2022-08-14T02:47:37;93180.00;;;18.69;42.66
30216;BME280;17028;47.642;8.070;2022-08-14T02:52:38;93171.25;;;18.73;42.63
30216;BME280;17028;47.642;8.070;2022-08-14T02:57:39;93175.03;;;18.81;42.60
30216;BME280;17028;47.642;8.070;2022-08-14T03:02:42;93159.88;;;18.84;42.70
30216;BME280;17028;47.642;8.070;2022-08-14T03:07:43;93159.88;;;18.84;42.76
30216;BME280;17028;47.642;8.070;2022-08-14T03:12:44;93151.91;;;18.82;42.93
30216;BME280;17028;47.642;8.070;2022-08-14T03:17:45;93155.22;;;18.86;42.78
30216;BME280;17028;47.642;8.070;2022-08-14T03:22:46;93160.38;;;18.88;42.82
30216;BME280;17028;47.642;8.070;2022-08-14T03:27:47;93154.69;;;18.94;42.45
30216;BME280;17028;47.642;8.070;2022-08-14T03:32:48;93148.22;;;18.99;42.34
30216;BME280;17028;47.642;8.070;2022-08-14T03:37:49;93145.63;;;19.01;42.56
30216;BME280;17028;47.642;8.070;2022-08-14T03:42:52;93150.84;;;18.91;42.62
30216;BME280;17028;47.642;8.070;2022-08-14T03:47:53;93142.63;;;18.93;42.36
30216;BME280;17028;47.642;8.070;2022-08-14T03:52:54;93146.16;;;18.99;42.38
30216;BME280;17028;47.642;8.070;2022-08-14T03:57:55;93150.06;;;18.96;42.48
30216;BME280;17028;47.642;8.070;2022-08-14T04:02:56;93159.09;;;18.83;42.91
30216;BME280;17028;47.642;8.070;2022-08-14T04:07:58;93150.69;;;18.78;42.86
30216;BME280;17028;47.642;8.070;2022-08-14T04:13:00;93147.44;;;18.68;43.32
30216;BME280;17028;47.642;8.070;2022-08-14T04:18:05;93151.63;;;18.56;43.44
30216;BME280;17028;47.642;8.070;2022-08-14T04:23:08;93148.88;;;18.44;43.59
30216;BME280;17028;47.642;8.070;2022-08-14T04:28:10;93154.91;;;18.24;44.21
30216;BME280;17028;47.642;8.070;2022-08-14T04:33:11;93158.81;;;18.15;44.23
30216;BME280;17028;47.642;8.070;2022-08-14T04:38:14;93160.63;;;18.12;44.43
30216;BME280;17028;47.642;8.070;2022-08-14T04:43:33;93160.13;;;18.02;44.74
30216;BME280;17028;47.642;8.070;2022-08-14T04:48:39;93166.34;;;17.90;45.35
30216;BME280;17028;47.642;8.070;2022-08-14T04:53:43;93159.97;;;17.72;45.65
30216;BME280;17028;47.642;8.070;2022-08-14T04:58:44;93167.97;;;17.62;46.00
30216;BME280;17028;47.642;8.070;2022-08-14T05:03:47;93168.50;;;17.55;46.22
30216;BME280;17028;47.642;8.070;2022-08-14T05:08:49;93156.22;;;17.52;46.36
30216;BME280;17028;47.642;8.070;2022-08-14T05:13:50;93157.50;;;17.51;46.57
30216;BME280;17028;47.642;8.070;2022-08-14T05:18:51;93154.41;;;17.49;46.96
30216;BME280;17028;47.642;8.070;2022-08-14T05:23:52;93144.94;;;17.52;47.03
30216;BME280;17028;47.642;8.070;2022-08-14T05:28:54;93127.50;;;17.54;47.00
30216;BME280;17028;47.642;8.070;2022-08-14T05:33:55;93112.09;;;17.66;46.81
30216;BME280;17028;47.642;8.070;2022-08-14T05:38:56;93108.44;;;17.77;46.84
30216;BME280;17028;47.642;8.070;2022-08-14T05:43:57;93093.75;;;17.96;46.42
30216;BME280;17028;47.642;8.070;2022-08-14T05:48:58;93089.53;;;18.19;46.39
30216;BME280;17028;47.642;8.070;2022-08-14T05:53:59;93072.44;;;18.42;46.25
30216;BME280;17028;47.642;8.070;2022-08-14T05:59:00;93071.72;;;18.66;45.58
30216;BME280;17028;47.642;8.070;2022-08-14T06:04:02;93067.16;;;18.88;45.30
30216;BME280;17028;47.642;8.070;2022-08-14T06:09:03;93079.28;;;19.13;45.10
30216;BME280;17028;47.642;8.070;2022-08-14T06:14:04;93072.53;;;19.41;44.53
30216;BME280;17028;47.642;8.070;2022-08-14T06:19:05;93066.84;;;19.66;44.11
30216;BME280;17028;47.642;8.070;2022-08-14T06:24:07;93073.75;;;19.90;43.59
30216;BME280;17028;47.642;8.070;2022-08-14T06:29:08;93084.75;;;20.12;42.85
30216;BME280;17028;47.642;8.070;2022-08-14T06:34:10;93090.00;;;20.41;42.69
30216;BME280;17028;47.642;8.070;2022-08-14T06:39:11;93101.53;;;20.62;42.27
30216;BME280;17028;47.642;8.070;2022-08-14T06:44:12;93098.34;;;20.84;42.10
30216;BME280;17028;47.642;8.070;2022-08-14T06:49:13;93087.28;;;21.00;41.23
30216;BME280;17028;47.642;8.070;2022-08-14T06:54:14;93093.84;;;21.08;41.02
30216;BME280;17028;47.642;8.070;2022-08-14T06:59:15;93109.66;;;21.17;41.75
30216;BME280;17028;47.642;8.070;2022-08-14T07:04:16;93113.25;;;21.31;41.60
30216;BME280;17028;47.642;8.070;2022-08-14T07:09:36;93096.59;;;21.41;41.44
30216;BME280;17028;47.642;8.070;2022-08-14T07:14:37;93104.28;;;21.59;41.29
30216;BME280;17028;47.642;8.070;2022-08-14T07:19:38;93119.75;;;21.72;41.12
30216;BME280;17028;47.642;8.070;2022-08-14T07:24:39;93125.00;;;21.67;41.32
30216;BME280;17028;47.642;8.070;2022-08-14T07:29:40;93132.72;;;21.67;41.55
30216;BME280;17028;47.642;8.070;2022-08-14T07:34:42;93139.38;;;21.69;41.26
30216;BME280;17028;47.642;8.070;2022-08-14T07:39:43;93148.56;;;21.76;41.01
30216;BME280;17028;47.642;8.070;2022-08-14T07:44:44;93111.66;;;21.89;41.04
30216;BME280;17028;47.642;8.070;2022-08-14T07:50:15;93094.25;;;22.19;40.59
30216;BME280;17028;47.642;8.070;2022-08-14T07:55:17;93104.59;;;22.30;41.05
30216;BME280;17028;47.642;8.070;2022-08-14T08:00:22;93117.94;;;22.35;41.06
30216;BME280;17028;47.642;8.070;2022-08-14T08:05:24;93120.47;;;22.26;40.97
30216;BME280;17028;47.642;8.070;2022-08-14T08:10:25;93112.63;;;22.53;40.81
30216;BME280;17028;47.642;8.070;2022-08-14T08:15:36;93113.69;;;22.63;40.51
30216;BME280;17028;47.642;8.070;2022-08-14T08:20:40;93102.69;;;22.81;39.96
30216;BME280;17028;47.642;8.070;2022-08-14T08:25:44;93097.28;;;22.91;39.61
30216;BME280;17028;47.642;8.070;2022-08-14T08:30:53;93090.56;;;23.01;39.53
30216;BME280;17028;47.642;8.070;2022-08-14T08:36:02;93109.00;;;23.29;39.61
30216;BME280;17028;47.642;8.070;2022-08-14T08:41:05;93093.97;;;23.50;38.88
30216;BME280;17028;47.642;8.070;2022-08-14T08:46:19;93095.25;;;23.70;38.20
30216;BME280;17028;47.642;8.070;2022-08-14T08:51:28;93097.78;;;23.81;38.60
30216;BME280;17028;47.642;8.070;2022-08-14T08:56:34;93101.78;;;23.86;38.06
30216;BME280;17028;47.642;8.070;2022-08-14T09:01:35;93103.03;;;24.06;37.95
30216;BME280;17028;47.642;8.070;2022-08-14T09:06:44;93111.28;;;24.17;37.22
30216;BME280;17028;47.642;8.070;2022-08-14T09:11:45;93126.09;;;24.16;37.38
30216;BME280;17028;47.642;8.070;2022-08-14T09:16:46;93113.09;;;24.51;37.39
30216;BME280;17028;47.642;8.070;2022-08-14T09:21:47;93105.66;;;24.41;36.74
30216;BME280;17028;47.642;8.070;2022-08-14T09:26:48;93103.75;;;24.43;36.37
30216;BME280;17028;47.642;8.070;2022-08-14T09:31:53;93094.69;;;24.52;36.00
30216;BME280;17028;47.642;8.070;2022-08-14T09:42:54;93086.81;;;24.90;34.79
30216;BME280;17028;47.642;8.070;2022-08-14T09:47:55;93090.81;;;25.17;34.14
30216;BME280;17028;47.642;8.070;2022-08-14T09:53:04;93083.03;;;25.49;33.81
30216;BME280;17028;47.642;8.070;2022-08-14T09:58:14;93098.44;;;25.61;31.38
30216;BME280;17028;47.642;8.070;2022-08-14T10:03:30;93093.81;;;25.81;31.59
30216;BME280;17028;47.642;8.070;2022-08-14T10:08:45;93086.00;;;25.90;31.94
30216;BME280;17028;47.642;8.070;2022-08-14T10:13:49;93091.34;;;25.86;32.19
30216;BME280;17028;47.642;8.070;2022-08-14T10:19:08;93088.03;;;26.20;32.03
30216;BME280;17028;47.642;8.070;2022-08-14T10:24:10;93075.38;;;26.39;31.75
30216;BME280;17028;47.642;8.070;2022-08-14T10:29:11;93070.06;;;26.35;31.35
30216;BME280;17028;47.642;8.070;2022-08-14T10:34:18;93064.94;;;26.74;31.44
30216;BME280;17028;47.642;8.070;2022-08-14T10:39:22;93058.06;;;27.03;30.90
30216;BME280;17028;47.642;8.070;2022-08-14T10:44:35;93053.38;;;27.15;30.93
30216;BME280;17028;47.642;8.070;2022-08-14T10:49:40;93052.63;;;27.14;31.21
30216;BME280;17028;47.642;8.070;2022-08-14T10:54:49;93040.00;;;27.43;32.09
30216;BME280;17028;47.642;8.070;2022-08-14T10:59:54;93046.16;;;27.39;33.13
30216;BME280;17028;47.642;8.070;2022-08-14T11:05:15;93052.09;;;27.76;33.85
30216;BME280;17028;47.642;8.070;2022-08-14T11:10:17;93051.03;;;28.07;33.66
30216;BME280;17028;47.642;8.070;2022-08-14T11:15:23;93059.53;;;28.14;34.90
30216;BME280;17028;47.642;8.070;2022-08-14T11:20:26;93059.28;;;28.20;35.10
30216;BME280;17028;47.642;8.070;2022-08-14T11:25:29;93059.53;;;28.14;35.46
30216;BME280;17028;47.642;8.070;2022-08-14T11:30:36;93060.69;;;27.94;36.15
30216;BME280;17028;47.642;8.070;2022-08-14T11:35:41;93073.25;;;27.81;36.10
30216;BME280;17028;47.642;8.070;2022-08-14T11:40:43;93071.16;;;27.81;36.39
30216;BME280;17028;47.642;8.070;2022-08-14T11:45:46;93085.28;;;27.97;36.27
30216;BME280;17028;47.642;8.070;2022-08-14T11:50:49;93073.81;;;27.79;37.17
30216;BME280;17028;47.642;8.070;2022-08-14T11:56:02;93071.56;;;27.78;37.42
30216;BME280;17028;47.642;8.070;2022-08-14T12:01:07;93081.41;;;27.67;37.87
30216;BME280;17028;47.642;8.070;2022-08-14T12:06:12;93073.59;;;27.42;38.85
30216;BME280;17028;47.642;8.070;2022-08-14T12:11:14;93073.28;;;27.56;38.52
30216;BME280;17028;47.642;8.070;2022-08-14T12:16:15;93071.63;;;27.70;38.41
30216;BME280;17028;47.642;8.070;2022-08-14T12:26:18;93056.00;;;28.06;37.70
30216;BME280;17028;47.642;8.070;2022-08-14T12:31:20;93065.78;;;28.03;37.41
30216;BME280;17028;47.642;8.070;2022-08-14T12:36:21;93049.25;;;28.11;37.28
30216;BME280;17028;47.642;8.070;2022-08-14T12:41:25;93050.44;;;28.08;37.31
30216;BME280;17028;47.642;8.070;2022-08-14T12:46:32;93050.25;;;27.89;37.70
30216;BME280;17028;47.642;8.070;2022-08-14T12:51:34;93051.09;;;27.81;38.33
30216;BME280;17028;47.642;8.070;2022-08-14T12:56:35;93052.53;;;27.90;38.17
30216;BME280;17028;47.642;8.070;2022-08-14T13:01:36;93052.53;;;27.90;38.24
30216;BME280;17028;47.642;8.070;2022-08-14T13:06:43;93031.38;;;27.86;38.36
30216;BME280;17028;47.642;8.070;2022-08-14T13:11:49;93029.16;;;27.59;38.68
30216;BME280;17028;47.642;8.070;2022-08-14T13:16:55;93030.53;;;27.58;38.78
30216;BME280;17028;47.642;8.070;2022-08-14T13:21:57;93027.47;;;27.38;38.78
30216;BME280;17028;47.642;8.070;2022-08-14T13:26:58;93021.09;;;27.22;38.96
30216;BME280;17028;47.642;8.070;2022-08-14T13:32:03;93015.69;;;27.09;36.76
30216;BME280;17028;47.642;8.070;2022-08-14T13:37:06;93019.78;;;26.98;34.98
30216;BME280;17028;47.642;8.070;2022-08-14T13:42:07;93019.94;;;26.75;33.91
30216;BME280;17028;47.642;8.070;2022-08-14T13:47:11;93004.72;;;26.64;33.18
30216;BME280;17028;47.642;8.070;2022-08-14T13:52:19;92999.72;;;26.47;33.05
30216;BME280;17028;47.642;8.070;2022-08-14T13:57:20;93005.84;;;26.36;32.83
30216;BME280;17028;47.642;8.070;2022-08-14T14:02:22;93006.88;;;26.23;33.39
30216;BME280;17028;47.642;8.070;2022-08-14T14:07:24;92991.66;;;26.21;33.07
30216;BME280;17028;47.642;8.070;2022-08-14T14:12:28;92986.19;;;26.07;33.24
30216;BME280;17028;47.642;8.070;2022-08-14T14:17:29;92993.06;;;26.04;33.50
30216;BME280;17028;47.642;8.070;2022-08-14T14:22:31;92994.97;;;25.94;33.21
30216;BME280;17028;47.642;8.070;2022-08-14T14:27:32;92986.84;;;25.82;32.67
30216;BME280;17028;47.642;8.070;2022-08-14T14:32:37;92982.13;;;25.70;33.12
30216;BME280;17028;47.642;8.070;2022-08-14T14:37:39;92983.28;;;25.74;33.22
30216;BME280;17028;47.642;8.070;2022-08-14T14:42:48;92978.72;;;25.71;33.11
30216;BME280;17028;47.642;8.070;2022-08-14T14:47:53;92966.72;;;25.73;33.23
30216;BME280;17028;47.642;8.070;2022-08-14T14:52:54;92969.44;;;25.55;33.17
30216;BME280;17028;47.642;8.070;2022-08-14T14:57:58;92971.50;;;25.70;33.03
30216;BME280;17028;47.642;8.070;2022-08-14T15:02:59;92967.88;;;25.70;32.79
30216;BME280;17028;47.642;8.070;2022-08-14T15:08:00;92972.97;;;25.79;32.99
30216;BME280;17028;47.642;8.070;2022-08-14T15:13:01;92972.94;;;25.87;33.39
30216;BME280;17028;47.642;8.070;2022-08-14T15:18:04;92980.78;;;25.78;34.59
30216;BME280;17028;47.642;8.070;2022-08-14T15:23:06;92977.00;;;25.76;35.19
30216;BME280;17028;47.642;8.070;2022-08-14T15:28:07;92991.88;;;25.59;35.51
30216;BME280;17028;47.642;8.070;2022-08-14T15:33:12;93011.72;;;25.41;36.31
30216;BME280;17028;47.642;8.070;2022-08-14T15:38:13;93005.25;;;25.33;36.65
30216;BME280;17028;47.642;8.070;2022-08-14T15:43:14;92999.53;;;25.17;37.47
30216;BME280;17028;47.642;8.070;2022-08-14T15:48:15;93002.97;;;25.08;37.91
30216;BME280;17028;47.642;8.070;2022-08-14T15:53:18;92994.63;;;24.95;38.93
30216;BME280;17028;47.642;8.070;2022-08-14T15:58:23;92996.91;;;24.89;39.24
30216;BME280;17028;47.642;8.070;2022-08-14T16:03:24;92992.16;;;24.76;39.59
30216;BME280;17028;47.642;8.070;2022-08-14T16:08:26;92990.25;;;24.63;39.80
30216;BME280;17028;47.642;8.070;2022-08-14T16:13:28;92989.28;;;24.60;40.23
30216;BME280;17028;47.642;8.070;2022-08-14T16:18:30;92983.38;;;24.58;40.40
30216;BME280;17028;47.642;8.070;2022-08-14T16:23:33;92990.78;;;24.54;40.58
30216;BME280;17028;47.642;8.070;2022-08-14T16:28:35;92968.75;;;24.46;40.58
30216;BME280;17028;47.642;8.070;2022-08-14T16:33:36;92974.03;;;24.42;40.27
30216;BME280;17028;47.642;8.070;2022-08-14T16:38:40;92971.00;;;24.40;40.60
30216;BME280;17028;47.642;8.070;2022-08-14T16:43:43;92974.81;;;24.35;40.69
30216;BME280;17028;47.642;8.070;2022-08-14T16:48:44;92981.63;;;24.24;41.21
30216;BME280;17028;47.642;8.070;2022-08-14T16:53:47;92958.84;;;24.24;40.95
30216;BME280;17028;47.642;8.070;2022-08-14T16:58:48;92960.53;;;24.27;41.15
30216;BME280;17028;47.642;8.070;2022-08-14T17:03:58;92963.19;;;24.17;41.13
30216;BME280;17028;47.642;8.070;2022-08-14T17:08:59;92969.28;;;24.22;41.20
30216;BME280;17028;47.642;8.070;2022-08-14T17:14:00;92962.84;;;24.21;41.40
30216;BME280;17028;47.642;8.070;2022-08-14T17:19:01;92956.91;;;24.11;41.57
30216;BME280;17028;47.642;8.070;2022-08-14T17:24:06;92954.59;;;24.02;42.22
30216;BME280;17028;47.642;8.070;2022-08-14T17:29:14;92955.16;;;23.93;42.49
30216;BME280;17028;47.642;8.070;2022-08-14T17:34:17;92953.59;;;23.84;42.75
30216;BME280;17028;47.642;8.070;2022-08-14T17:39:20;92956.41;;;23.76;43.36
30216;BME280;17028;47.642;8.070;2022-08-14T17:44:24;92960.91;;;23.64;43.77
30216;BME280;17028;47.642;8.070;2022-08-14T17:49:29;92970.56;;;23.61;43.58
30216;BME280;17028;47.642;8.070;2022-08-14T17:59:38;92973.94;;;23.51;44.44
30216;BME280;17028;47.642;8.070;2022-08-14T18:04:40;92967.81;;;23.40;45.35
30216;BME280;17028;47.642;8.070;2022-08-14T18:09:44;92972.09;;;23.25;45.85
30216;BME280;17028;47.642;8.070;2022-08-14T18:14:46;92970.94;;;23.21;45.77
30216;BME280;17028;47.642;8.070;2022-08-14T18:19:48;92962.41;;;23.21;45.89
30216;BME280;17028;47.642;8.070;2022-08-14T18:24:50;92946.09;;;23.21;45.93
30216;BME280;17028;47.642;8.070;2022-08-14T18:29:56;92945.00;;;23.24;45.50
30216;BME280;17028;47.642;8.070;2022-08-14T18:35:00;92965.88;;;23.27;45.54
30216;BME280;17028;47.642;8.070;2022-08-14T18:45:23;92963.41;;;23.31;45.62
30216;BME280;17028;47.642;8.070;2022-08-14T18:50:25;92978.97;;;23.30;45.38
30216;BME280;17028;47.642;8.070;2022-08-14T19:10:40;92986.28;;;23.17;45.98
30216;BME280;17028;47.642;8.070;2022-08-14T19:15:45;92993.69;;;23.21;45.58
30216;BME280;17028;47.642;8.070;2022-08-14T19:25:57;92989.78;;;23.10;45.88
30216;BME280;17028;47.642;8.070;2022-08-14T19:36:45;93001.81;;;22.95;46.42
30216;BME280;17028;47.642;8.070;2022-08-14T19:41:54;93010.50;;;22.90;46.55
30216;BME280;17028;47.642;8.070;2022-08-14T19:46:56;92998.34;;;22.89;46.70
30216;BME280;17028;47.642;8.070;2022-08-14T19:51:57;93001.00;;;22.87;46.46
30216;BME280;17028;47.642;8.070;2022-08-14T19:56:59;93003.56;;;22.77;47.06
30216;BME280;17028;47.642;8.070;2022-08-14T20:02:00;92990.28;;;22.72;47.01
30216;BME280;17028;47.642;8.070;2022-08-14T20:07:03;92991.69;;;22.58;47.50
30216;BME280;17028;47.642;8.070;2022-08-14T20:12:04;92998.47;;;22.55;47.50
30216;BME280;17028;47.642;8.070;2022-08-14T20:17:13;92996.59;;;22.57;47.60
30216;BME280;17028;47.642;8.070;2022-08-14T20:22:30;92984.56;;;22.43;48.44
30216;BME280;17028;47.642;8.070;2022-08-14T20:32:34;92985.22;;;22.36;48.81
30216;BME280;17028;47.642;8.070;2022-08-14T20:37:36;92995.69;;;22.41;48.31
30216;BME280;17028;47.642;8.070;2022-08-14T20:42:37;92985.09;;;22.42;48.49
30216;BME280;17028;47.642;8.070;2022-08-14T20:47:58;92985.22;;;22.36;49.09
30216;BME280;17028;47.642;8.070;2022-08-14T20:53:00;92980.88;;;22.35;49.33
30216;BME280;17028;47.642;8.070;2022-08-14T20:58:02;92980.13;;;22.21;49.71
30216;BME280;17028;47.642;8.070;2022-08-14T21:08:28;92982.41;;;22.23;49.77
30216;BME280;17028;47.642;8.070;2022-08-14T21:13:30;92989.78;;;22.18;49.77
30216;BME280;17028;47.642;8.070;2022-08-14T21:18:36;92995.56;;;22.12;49.98
30216;BME280;17028;47.642;8.070;2022-08-14T21:23:40;92993.09;;;22.09;50.09
30216;BME280;17028;47.642;8.070;2022-08-14T21:28:41;92991.78;;;22.10;50.15
30216;BME280;17028;47.642;8.070;2022-08-14T21:33:43;93007.13;;;22.14;49.77
30216;BME280;17028;47.642;8.070;2022-08-14T21:38:44;93003.06;;;22.23;49.45
30216;BME280;17028;47.642;8.070;2022-08-14T21:43:45;93005.88;;;22.37;49.26
30216;BME280;17028;47.642;8.070;2022-08-14T21:48:46;93009.88;;;22.41;49.12
30216;BME280;17028;47.642;8.070;2022-08-14T21:53:48;93020.91;;;22.45;49.16
30216;BME280;17028;47.642;8.070;2022-08-14T21:58:50;93027.16;;;22.43;49.30
30216;BME280;17028;47.642;8.070;2022-08-14T22:03:52;93020.50;;;22.41;49.70
30216;BME280;17028;47.642;8.070;2022-08-14T22:08:56;93026.94;;;22.41;49.43
30216;BME280;17028;47.642;8.070;2022-08-14T22:14:00;93031.53;;;22.44;49.34
30216;BME280;17028;47.642;8.070;2022-08-14T22:19:03;93040.56;;;22.43;49.33
30216;BME280;17028;47.642;8.070;2022-08-14T22:24:04;93049.34;;;22.31;50.43
30216;BME280;17028;47.642;8.070;2022-08-14T22:29:06;93055.63;;;22.16;51.58
30216;BME280;17028;47.642;8.070;2022-08-14T22:34:09;93054.69;;;22.00;52.19
30216;BME280;17028;47.642;8.070;2022-08-14T22:39:11;93070.09;;;21.78;53.02
30216;BME280;17028;47.642;8.070;2022-08-14T22:44:16;93062.47;;;21.60;54.17
30216;BME280;17028;47.642;8.070;2022-08-14T22:49:21;93046.88;;;21.26;55.10
30216;BME280;17028;47.642;8.070;2022-08-14T22:54:23;93055.75;;;20.77;58.29
30216;BME280;17028;47.642;8.070;2022-08-14T22:59:25;93054.97;;;20.44;60.27
30216;BME280;17028;47.642;8.070;2022-08-14T23:04:30;93060.53;;;20.17;61.39
30216;BME280;17028;47.642;8.070;2022-08-14T23:09:31;93066.91;;;19.79;63.42
30216;BME280;17028;47.642;8.070;2022-08-14T23:14:32;93050.78;;;19.55;64.61
30216;BME280;17028;47.642;8.070;2022-08-14T23:19:34;93051.81;;;19.33;65.72
30216;BME280;17028;47.642;8.070;2022-08-14T23:24:35;93052.84;;;19.11;67.50
30216;BME280;17028;47.642;8.070;2022-08-14T23:29:37;93041.19;;;18.95;68.46
30216;BME280;17028;47.642;8.070;2022-08-14T23:34:38;93029.06;;;18.70;70.40
30216;BME280;17028;47.642;8.070;2022-08-14T23:39:39;93008.72;;;18.52;71.44
30216;BME280;17028;47.642;8.070;2022-08-14T23:44:40;93008.09;;;18.35;71.98
30216;BME280;17028;47.642;8.070;2022-08-14T23:49:46;93026.28;;;18.40;71.60
30216;BME280;17028;47.642;8.070;2022-08-14T23:54:47;93036.53;;;18.37;72.46
30216;BME280;17028;47.642;8.070;2022-08-14T23:59:48;93035.00;;;18.36;73.74
